Time;durP1;ratioP1;P1;durP2;ratioP2;P2;SDS_P1;SDS_P2;PMS_P1;PMS_P2;Temp;Humidity;BMP_temperature;BMP_pressure;BME280_temperature;BME280_humidity;BME280_pressure;Samples;Min_cycle;Max_cycle;Signal;HPM_P1;HPM_P2
2020/12/06 00:01:07;;;;;;;40.85;18.25;;;4.20;99.90;;;;;;5055229;28;20526;-78
2020/12/06 00:03:35;;;;;;;39.65;19.50;;;4.20;99.90;;;;;;5036987;28;20041;-78
2020/12/06 00:06:01;;;;;;;38.60;19.58;;;4.20;99.90;;;;;;5047521;28;20052;-78
2020/12/06 00:08:27;;;;;;;36.05;17.95;;;4.10;99.90;;;;;;5015243;28;20144;-80
2020/12/06 00:10:53;;;;;;;36.63;19.25;;;4.10;99.90;;;;;;5029634;28;20136;-78
2020/12/06 00:13:18;;;;;;;37.78;19.65;;;4.20;99.90;;;;;;5024557;28;20033;-78
2020/12/06 00:15:44;;;;;;;37.30;18.90;;;4.20;99.90;;;;;;5035791;28;20052;-78
2020/12/06 00:18:09;;;;;;;39.50;18.88;;;4.20;99.90;;;;;;5036738;28;20045;-78
2020/12/06 00:20:35;;;;;;;40.35;18.92;;;4.20;99.90;;;;;;5035915;28;20453;-78
2020/12/06 00:23:00;;;;;;;38.65;19.13;;;4.20;99.90;;;;;;5015720;28;20041;-77
2020/12/06 00:25:27;;;;;;;36.40;18.38;;;4.20;99.90;;;;;;5034640;28;20072;-78
2020/12/06 00:27:52;;;;;;;42.40;18.65;;;4.20;99.90;;;;;;5034137;28;20044;-77
2020/12/06 00:30:18;;;;;;;39.53;19.48;;;4.20;99.90;;;;;;5011373;28;20042;-78
2020/12/06 00:32:44;;;;;;;36.85;19.52;;;4.10;99.90;;;;;;5009636;28;20543;-76
2020/12/06 00:35:10;;;;;;;41.97;19.80;;;4.10;99.90;;;;;;5005647;28;20033;-77
2020/12/06 00:37:39;;;;;;;43.63;19.13;;;4.20;99.90;;;;;;5014479;28;20052;-77
2020/12/06 00:40:08;;;;;;;37.08;19.27;;;4.10;99.90;;;;;;5016838;28;20570;-76
2020/12/06 00:42:34;;;;;;;40.35;19.90;;;4.20;99.90;;;;;;5016713;28;20289;-77
2020/12/06 00:45:01;;;;;;;36.90;18.23;;;4.20;99.90;;;;;;5015424;28;20037;-77
2020/12/06 00:47:27;;;;;;;40.42;19.50;;;4.20;99.90;;;;;;5015109;28;20598;-78
2020/12/06 00:49:52;;;;;;;39.17;19.27;;;4.20;99.90;;;;;;5014157;28;20128;-78
2020/12/06 00:52:18;;;;;;;37.95;17.90;;;4.20;99.90;;;;;;5015920;28;20038;-78
2020/12/06 00:54:43;;;;;;;42.75;18.92;;;4.20;99.90;;;;;;5012293;28;20058;-78
2020/12/06 00:57:09;;;;;;;37.13;18.48;;;4.20;99.90;;;;;;5013510;28;20037;-78
2020/12/06 00:59:34;;;;;;;36.70;18.42;;;4.20;99.90;;;;;;5009243;28;20037;-78
2020/12/06 01:02:03;;;;;;;41.88;18.85;;;4.20;99.90;;;;;;4994067;28;20117;-76
2020/12/06 01:04:29;;;;;;;43.70;18.83;;;4.20;99.90;;;;;;4994986;28;20039;-77
2020/12/06 01:06:58;;;;;;;40.58;20.02;;;4.10;99.90;;;;;;5025214;28;20048;-77
2020/12/06 01:09:23;;;;;;;39.95;19.40;;;4.10;99.90;;;;;;5012348;28;20080;-77
2020/12/06 01:11:49;;;;;;;45.20;21.20;;;4.10;99.90;;;;;;5011464;28;20484;-78
2020/12/06 01:14:15;;;;;;;39.47;18.90;;;4.10;99.90;;;;;;5008241;28;20044;-78
2020/12/06 01:16:40;;;;;;;37.95;18.83;;;4.10;99.90;;;;;;5007616;28;20033;-78
2020/12/06 01:19:06;;;;;;;37.80;19.33;;;4.10;99.90;;;;;;5014229;28;20041;-77
2020/12/06 01:21:31;;;;;;;37.40;20.25;;;4.00;99.90;;;;;;5016918;28;20671;-78
2020/12/06 01:23:57;;;;;;;41.65;20.25;;;4.00;99.90;;;;;;5008662;28;20049;-77
2020/12/06 01:26:22;;;;;;;37.22;20.15;;;4.10;99.90;;;;;;5013851;28;20414;-78
2020/12/06 01:28:48;;;;;;;40.08;20.13;;;4.10;99.90;;;;;;5029411;28;20670;-77
2020/12/06 01:31:13;;;;;;;48.30;21.55;;;4.00;99.90;;;;;;5022266;28;20038;-78
2020/12/06 01:33:39;;;;;;;46.28;21.35;;;4.40;99.90;;;;;;5032006;28;20557;-77
2020/12/06 01:36:04;;;;;;;47.70;21.00;;;4.00;99.90;;;;;;5024234;28;20061;-76
2020/12/06 01:38:30;;;;;;;44.75;20.85;;;4.00;99.90;;;;;;5021459;28;20064;-76
2020/12/06 01:40:55;;;;;;;44.75;21.88;;;4.00;99.90;;;;;;5017838;28;20068;-77
2020/12/06 01:43:21;;;;;;;44.13;22.42;;;3.90;99.90;;;;;;5015761;28;20029;-77
2020/12/06 01:45:47;;;;;;;45.13;21.98;;;3.90;99.90;;;;;;5011905;28;20045;-77
2020/12/06 01:48:13;;;;;;;44.00;20.35;;;3.90;99.90;;;;;;5011732;28;20037;-77
2020/12/06 01:50:39;;;;;;;48.90;21.95;;;3.90;99.90;;;;;;5012703;28;20037;-76
2020/12/06 01:53:07;;;;;;;44.97;21.95;;;3.90;99.90;;;;;;5015445;28;20040;-77
2020/12/06 01:55:33;;;;;;;49.90;21.85;;;3.90;99.90;;;;;;5012064;28;20048;-77
2020/12/06 01:58:06;;;;;;;44.20;22.10;;;4.00;99.90;;;;;;5012287;28;20128;-76
2020/12/06 02:00:33;;;;;;;47.60;20.38;;;4.00;99.90;;;;;;5014020;28;20041;-76
2020/12/06 02:03:03;;;;;;;42.17;20.80;;;3.90;99.90;;;;;;5013305;28;20068;-77
2020/12/06 02:05:29;;;;;;;45.22;21.23;;;3.90;99.90;;;;;;5018859;28;20037;-78
2020/12/06 02:07:58;;;;;;;37.00;19.90;;;4.00;99.90;;;;;;5031405;28;20037;-78
2020/12/06 02:10:25;;;;;;;41.00;20.92;;;4.00;99.90;;;;;;5033633;28;20033;-78
2020/12/06 02:12:51;;;;;;;46.08;21.10;;;4.00;99.90;;;;;;5015542;28;20041;-78
2020/12/06 02:15:17;;;;;;;37.60;19.80;;;3.90;99.90;;;;;;5032210;28;20040;-77
2020/12/06 02:17:42;;;;;;;47.20;20.73;;;3.90;99.90;;;;;;5031274;28;20041;-78
2020/12/06 02:20:08;;;;;;;46.22;20.98;;;3.90;99.90;;;;;;5033675;28;20037;-78
2020/12/06 02:22:33;;;;;;;46.25;20.38;;;3.90;99.90;;;;;;5034097;28;20039;-78
2020/12/06 02:24:59;;;;;;;48.83;21.33;;;3.90;99.90;;;;;;5033583;28;20284;-77
2020/12/06 02:27:24;;;;;;;50.25;22.17;;;3.80;99.90;;;;;;5030466;28;20040;-77
2020/12/06 02:29:50;;;;;;;52.60;23.08;;;3.80;99.90;;;;;;5031539;28;20191;-78
2020/12/06 02:32:16;;;;;;;50.58;23.08;;;3.80;99.90;;;;;;5035260;28;20029;-77
2020/12/06 02:34:41;;;;;;;48.20;23.50;;;3.80;99.90;;;;;;5015054;28;20033;-78
2020/12/06 02:37:07;;;;;;;56.35;24.60;;;3.80;99.90;;;;;;5032311;28;20082;-78
2020/12/06 02:39:32;;;;;;;53.42;23.35;;;3.80;99.90;;;;;;5030913;28;20037;-77
2020/12/06 02:41:58;;;;;;;53.40;25.20;;;3.70;99.90;;;;;;5032501;28;20083;-78
2020/12/06 02:44:23;;;;;;;55.95;25.63;;;3.70;99.90;;;;;;5036312;28;20056;-77
2020/12/06 02:46:49;;;;;;;62.47;26.38;;;3.70;99.90;;;;;;5032563;28;20025;-77
2020/12/06 02:49:14;;;;;;;64.00;26.15;;;3.70;99.90;;;;;;5036681;28;20112;-77
2020/12/06 02:51:40;;;;;;;57.33;25.27;;;3.70;99.90;;;;;;5033357;28;20056;-77
2020/12/06 02:54:06;;;;;;;56.83;24.67;;;3.70;99.90;;;;;;5033388;28;20037;-78
2020/12/06 02:56:32;;;;;;;51.88;24.83;;;3.60;99.90;;;;;;5032798;28;20045;-77
2020/12/06 02:58:58;;;;;;;54.03;24.98;;;3.60;99.90;;;;;;5030733;28;20044;-78
2020/12/06 03:01:28;;;;;;;56.10;24.30;;;3.60;99.90;;;;;;5022157;28;20422;-77
2020/12/06 03:03:53;;;;;;;57.25;24.60;;;3.60;99.90;;;;;;5053899;28;20048;-78
2020/12/06 03:06:19;;;;;;;59.15;24.63;;;3.60;99.90;;;;;;5050197;28;20151;-79
2020/12/06 03:08:44;;;;;;;55.92;25.50;;;3.60;99.90;;;;;;5052568;28;20045;-78
2020/12/06 03:11:10;;;;;;;61.05;24.85;;;3.60;99.90;;;;;;5041232;28;20047;-78
2020/12/06 03:13:35;;;;;;;60.97;25.77;;;3.60;99.90;;;;;;5035818;28;20056;-78
2020/12/06 03:16:02;;;;;;;54.83;25.08;;;3.60;99.90;;;;;;5034870;28;20101;-77
2020/12/06 03:18:28;;;;;;;49.80;23.25;;;3.50;99.90;;;;;;5019825;28;20199;-78
2020/12/06 03:20:53;;;;;;;55.00;24.98;;;3.50;99.90;;;;;;5017348;28;20097;-78
2020/12/06 03:23:19;;;;;;;61.50;26.48;;;3.50;99.90;;;;;;5037116;28;20026;-78
2020/12/06 03:25:44;;;;;;;61.70;26.92;;;3.50;99.90;;;;;;5033758;28;20068;-78
2020/12/06 03:28:10;;;;;;;65.72;27.60;;;3.40;99.90;;;;;;5036768;28;20032;-78
2020/12/06 03:30:35;;;;;;;69.15;28.05;;;3.40;99.90;;;;;;5038634;28;20045;-77
2020/12/06 03:33:01;;;;;;;63.28;26.13;;;3.40;99.90;;;;;;5035470;28;20055;-78
2020/12/06 03:35:26;;;;;;;67.57;29.08;;;3.50;99.90;;;;;;5035300;28;20061;-77
2020/12/06 03:37:52;;;;;;;70.80;28.25;;;3.40;99.90;;;;;;5034073;28;20406;-78
2020/12/06 03:40:17;;;;;;;72.30;28.05;;;3.40;99.90;;;;;;5033034;28;20505;-77
2020/12/06 03:42:43;;;;;;;72.40;28.10;;;3.30;99.90;;;;;;5033559;28;20123;-78
2020/12/06 03:45:09;;;;;;;75.00;28.10;;;3.30;99.90;;;;;;5033860;28;20064;-78
2020/12/06 03:47:34;;;;;;;82.38;29.13;;;3.30;99.90;;;;;;5032640;28;20036;-77
2020/12/06 03:50:00;;;;;;;83.07;31.50;;;3.30;99.90;;;;;;5036413;28;20045;-77
2020/12/06 03:52:25;;;;;;;91.93;31.45;;;3.30;99.90;;;;;;5035959;28;20036;-78
2020/12/06 03:54:51;;;;;;;83.50;28.80;;;3.30;99.90;;;;;;5032592;28;20034;-78
2020/12/06 03:57:16;;;;;;;98.55;33.17;;;3.30;99.90;;;;;;5031529;28;20047;-78
2020/12/06 03:59:42;;;;;;;89.38;30.80;;;3.20;99.90;;;;;;5034745;28;20737;-78
2020/12/06 04:02:08;;;;;;;90.38;30.92;;;3.30;99.90;;;;;;5037914;28;20056;-78
2020/12/06 04:04:33;;;;;;;81.18;30.80;;;3.30;99.90;;;;;;5014887;28;20071;-78
2020/12/06 04:06:59;;;;;;;90.00;30.73;;;3.30;99.90;;;;;;5033132;28;20036;-77
2020/12/06 04:09:24;;;;;;;88.43;30.33;;;3.30;99.90;;;;;;5044946;28;20112;-77
2020/12/06 04:11:50;;;;;;;90.93;30.25;;;3.30;99.90;;;;;;5040994;28;20048;-77
2020/12/06 04:14:15;;;;;;;89.50;30.58;;;3.20;99.90;;;;;;5017135;28;20044;-78
2020/12/06 04:16:41;;;;;;;92.60;30.98;;;3.20;99.90;;;;;;5032123;28;20892;-77
2020/12/06 04:19:06;;;;;;;89.78;31.48;;;3.10;99.90;;;;;;5034877;28;20640;-78
2020/12/06 04:21:32;;;;;;;93.55;32.60;;;3.00;99.90;;;;;;5030484;28;20445;-78
2020/12/06 04:23:57;;;;;;;91.57;32.58;;;3.00;99.90;;;;;;5034065;28;20052;-78
2020/12/06 04:26:23;;;;;;;97.68;33.25;;;3.10;99.90;;;;;;5033488;28;20067;-78
2020/12/06 04:28:49;;;;;;;82.88;31.23;;;3.10;99.90;;;;;;5035183;28;20098;-78
2020/12/06 04:31:14;;;;;;;98.28;32.58;;;3.10;99.90;;;;;;5035686;28;20409;-77
2020/12/06 04:33:40;;;;;;;87.90;30.52;;;3.10;99.90;;;;;;5038895;28;20044;-77
2020/12/06 04:36:05;;;;;;;97.63;31.25;;;3.10;99.90;;;;;;5048822;28;20045;-77
2020/12/06 04:38:31;;;;;;;90.88;32.30;;;3.10;99.90;;;;;;5052551;28;20059;-78
2020/12/06 04:40:56;;;;;;;95.28;30.90;;;3.10;99.90;;;;;;5052324;28;20088;-78
2020/12/06 04:43:22;;;;;;;85.50;30.23;;;3.10;99.90;;;;;;5039517;28;20040;-77
2020/12/06 04:45:48;;;;;;;90.30;29.23;;;3.10;99.90;;;;;;5032985;28;20042;-77
2020/12/06 04:48:41;;;;;;;86.57;31.25;;;3.10;99.90;;;;;;5036106;28;20036;-77
2020/12/06 04:51:12;;;;;;;90.93;29.88;;;3.10;99.90;;;;;;5035199;28;20114;-77
2020/12/06 04:53:43;;;;;;;93.68;31.98;;;3.20;99.90;;;;;;5033890;28;20033;-77
2020/12/06 04:56:11;;;;;;;81.85;30.50;;;3.10;99.90;;;;;;5013293;28;20036;-78
2020/12/06 04:58:41;;;;;;;96.82;32.30;;;3.10;99.90;;;;;;5034252;28;20053;-78
2020/12/06 05:01:07;;;;;;;103.53;32.25;;;3.10;99.90;;;;;;5033905;28;20034;-77
2020/12/06 05:03:34;;;;;;;95.65;30.85;;;3.10;99.90;;;;;;5032918;28;20047;-77
2020/12/06 05:06:00;;;;;;;96.18;30.83;;;3.10;99.90;;;;;;5013119;28;20584;-77
2020/12/06 05:08:29;;;;;;;105.15;33.60;;;3.10;99.90;;;;;;5033177;28;20045;-77
2020/12/06 05:10:55;;;;;;;90.75;29.40;;;3.00;99.90;;;;;;5033644;28;20033;-77
2020/12/06 05:13:20;;;;;;;102.22;34.05;;;3.10;99.90;;;;;;5033914;28;20418;-77
2020/12/06 05:15:47;;;;;;;92.50;30.45;;;3.10;99.90;;;;;;5030296;28;20032;-77
2020/12/06 05:18:13;;;;;;;98.65;31.30;;;3.10;99.90;;;;;;5032199;28;20041;-76
2020/12/06 05:20:38;;;;;;;90.40;32.10;;;3.10;99.90;;;;;;5015955;28;20061;-77
2020/12/06 05:23:04;;;;;;;85.38;32.25;;;3.10;99.90;;;;;;5032511;28;20045;-77
2020/12/06 05:25:30;;;;;;;91.28;33.38;;;3.10;99.90;;;;;;5030632;28;20061;-77
2020/12/06 05:27:55;;;;;;;86.78;32.90;;;3.10;99.90;;;;;;5013725;28;20045;-77
2020/12/06 05:30:21;;;;;;;103.25;33.92;;;3.10;99.90;;;;;;5015314;28;21628;-77
2020/12/06 05:32:47;;;;;;;96.50;31.63;;;3.20;99.90;;;;;;5033134;28;20095;-77
2020/12/06 05:35:13;;;;;;;88.28;32.38;;;3.20;99.90;;;;;;5015173;28;20421;-77
2020/12/06 05:37:41;;;;;;;85.35;31.95;;;3.20;99.90;;;;;;5030579;28;20053;-77
2020/12/06 05:40:12;;;;;;;85.57;30.95;;;3.20;99.90;;;;;;5033279;28;20405;-76
2020/12/06 05:42:41;;;;;;;83.35;32.33;;;3.30;99.90;;;;;;5033827;28;20053;-77
2020/12/06 05:45:07;;;;;;;75.97;30.15;;;3.20;99.90;;;;;;5031333;28;20041;-79
2020/12/06 05:47:33;;;;;;;81.70;31.42;;;3.10;99.90;;;;;;5029423;28;20433;-77
2020/12/06 05:49:59;;;;;;;91.10;33.15;;;3.10;99.90;;;;;;5032311;28;20033;-78
2020/12/06 05:52:28;;;;;;;81.70;30.27;;;3.10;99.90;;;;;;5033183;28;20255;-78
2020/12/06 05:54:57;;;;;;;89.80;32.40;;;3.00;99.90;;;;;;5014296;28;20618;-77
2020/12/06 05:57:27;;;;;;;80.03;29.75;;;3.10;99.90;;;;;;5020209;28;20389;-78
2020/12/06 05:59:59;;;;;;;76.82;30.77;;;3.10;99.90;;;;;;5031121;28;20039;-78
2020/12/06 06:02:26;;;;;;;75.80;28.80;;;3.10;99.90;;;;;;5015259;28;21380;-77
2020/12/06 06:04:55;;;;;;;80.03;29.95;;;3.10;99.90;;;;;;5036379;28;20033;-77
2020/12/06 06:07:22;;;;;;;73.65;29.10;;;3.20;99.90;;;;;;5036341;28;20041;-76
2020/12/06 06:09:54;;;;;;;76.50;30.00;;;3.00;99.90;;;;;;5049702;28;20033;-77
2020/12/06 06:12:39;;;;;;;76.85;30.73;;;3.10;99.90;;;;;;5027829;28;20083;-77
2020/12/06 06:15:05;;;;;;;79.97;29.35;;;3.20;99.90;;;;;;5040613;28;20623;-77
2020/12/06 06:17:32;;;;;;;75.60;29.38;;;3.20;99.90;;;;;;5028737;28;20132;-76
2020/12/06 06:19:58;;;;;;;93.97;32.42;;;3.10;99.90;;;;;;5032089;28;20342;-77
2020/12/06 06:22:34;;;;;;;80.55;31.75;;;3.10;99.90;;;;;;5032649;28;20118;-77
2020/12/06 06:25:01;;;;;;;81.38;29.33;;;3.10;99.90;;;;;;5033274;28;20037;-77
2020/12/06 06:27:37;;;;;;;77.65;30.55;;;3.10;99.90;;;;;;5013184;28;20494;-76
2020/12/06 06:30:10;;;;;;;81.90;29.63;;;3.10;99.90;;;;;;5031207;28;20125;-77
2020/12/06 06:32:37;;;;;;;84.90;30.95;;;3.10;99.90;;;;;;5032688;28;20040;-79
2020/12/06 06:35:04;;;;;;;82.45;30.65;;;3.30;99.90;;;;;;5011280;28;20544;-75
2020/12/06 06:37:31;;;;;;;79.55;32.08;;;3.30;99.90;;;;;;5030579;28;20056;-77
2020/12/06 06:40:03;;;;;;;78.03;30.63;;;3.30;99.90;;;;;;5020344;28;20523;-76
2020/12/06 06:42:29;;;;;;;79.45;30.52;;;3.20;99.90;;;;;;5038447;28;20044;-77
2020/12/06 06:45:07;;;;;;;85.07;31.17;;;3.30;99.90;;;;;;5016425;28;20037;-77
2020/12/06 06:47:39;;;;;;;87.38;28.80;;;3.30;99.90;;;;;;5013081;28;20156;-76
2020/12/06 06:50:07;;;;;;;78.25;28.42;;;3.20;99.90;;;;;;5019522;28;20120;-77
2020/12/06 06:52:34;;;;;;;85.00;31.23;;;3.30;99.90;;;;;;5032540;28;20041;-77
2020/12/06 06:55:00;;;;;;;87.50;31.42;;;3.30;99.90;;;;;;5032038;28;20493;-77
2020/12/06 06:57:31;;;;;;;83.63;31.25;;;3.40;99.90;;;;;;5033083;28;20133;-78
2020/12/06 07:00:01;;;;;;;84.25;30.60;;;3.30;99.90;;;;;;5012687;28;20037;-78
2020/12/06 07:02:35;;;;;;;79.25;26.73;;;3.20;99.90;;;;;;5032179;28;20059;-78
2020/12/06 07:05:04;;;;;;;78.25;26.83;;;3.30;99.90;;;;;;5013173;28;20440;-78
2020/12/06 07:07:44;;;;;;;84.88;28.88;;;3.30;99.90;;;;;;5018548;28;20119;-77
2020/12/06 07:10:18;;;;;;;75.22;28.17;;;3.30;99.90;;;;;;5031419;28;20565;-78
2020/12/06 07:12:44;;;;;;;84.75;28.25;;;3.30;99.90;;;;;;5028589;28;20049;-77
2020/12/06 07:15:10;;;;;;;87.63;29.63;;;3.30;99.90;;;;;;5020671;28;20041;-77
2020/12/06 07:17:36;;;;;;;79.47;27.95;;;3.30;99.90;;;;;;5026494;28;20083;-77
2020/12/06 07:20:04;;;;;;;93.25;31.17;;;3.30;99.90;;;;;;5029124;28;20040;-77
2020/12/06 07:22:30;;;;;;;85.95;26.83;;;3.30;99.90;;;;;;5028965;28;20073;-77
2020/12/06 07:24:56;;;;;;;81.38;27.70;;;3.40;99.90;;;;;;5029118;28;20080;-76
2020/12/06 07:27:21;;;;;;;87.53;27.27;;;3.30;99.90;;;;;;5031041;28;20429;-77
2020/12/06 07:29:47;;;;;;;86.55;28.70;;;3.30;99.90;;;;;;5031339;28;20374;-77
2020/12/06 07:32:13;;;;;;;76.82;26.20;;;3.30;99.90;;;;;;5070968;22;20072;-86
2020/12/06 07:34:38;;;;;;;80.75;27.90;;;3.30;99.90;;;;;;5025625;28;20117;-89
2020/12/06 07:37:04;;;;;;;67.53;25.35;;;3.40;99.90;;;;;;5005682;28;20044;-87
2020/12/06 07:39:30;;;;;;;76.03;26.33;;;3.40;99.90;;;;;;5010293;28;20473;-89
2020/12/06 07:41:55;;;;;;;70.55;23.98;;;3.40;99.90;;;;;;5006314;28;20065;-88
2020/12/06 07:44:31;;;;;;;69.38;22.92;;;3.40;99.90;;;;;;4984257;28;20036;-89
2020/12/06 07:47:00;;;;;;;77.38;26.38;;;3.40;99.90;;;;;;5007461;23;20065;-76
2020/12/06 07:49:25;;;;;;;79.07;26.38;;;3.40;99.90;;;;;;5031668;28;20041;-77
2020/12/06 07:51:51;;;;;;;75.20;25.92;;;3.50;99.90;;;;;;5033434;28;20106;-78
2020/12/06 07:54:17;;;;;;;79.70;25.10;;;3.50;99.90;;;;;;5037667;28;20025;-78
2020/12/06 07:56:50;;;;;;;81.35;26.80;;;3.60;99.90;;;;;;5025626;28;20041;-76
2020/12/06 07:59:23;;;;;;;81.97;25.73;;;3.60;99.90;;;;;;5020770;28;20590;-78
2020/12/06 08:01:50;;;;;;;81.38;26.13;;;3.60;99.90;;;;;;5022462;28;20532;-78
2020/12/06 08:04:27;;;;;;;68.78;23.42;;;3.60;99.90;;;;;;5018804;28;20025;-77
2020/12/06 08:06:59;;;;;;;73.20;22.60;;;3.50;99.90;;;;;;5015475;28;20037;-77
2020/12/06 08:09:27;;;;;;;72.18;23.77;;;3.60;99.90;;;;;;5019176;28;20088;-76
2020/12/06 08:11:55;;;;;;;62.67;20.27;;;3.50;99.90;;;;;;5016416;28;20029;-77
2020/12/06 08:14:21;;;;;;;65.43;20.75;;;3.60;99.90;;;;;;5018725;28;20057;-78
2020/12/06 08:17:00;;;;;;;83.30;25.25;;;3.60;99.90;;;;;;5014127;28;20028;-77
2020/12/06 08:19:27;;;;;;;68.40;23.95;;;3.60;99.90;;;;;;5015288;28;20054;-78
2020/12/06 08:21:58;;;;;;;88.53;26.98;;;3.60;99.90;;;;;;5035879;28;20152;-78
2020/12/06 08:24:24;;;;;;;74.68;24.52;;;3.60;99.90;;;;;;5017525;28;20068;-77
2020/12/06 08:26:51;;;;;;;77.05;23.73;;;3.60;99.90;;;;;;5016782;28;20030;-78
2020/12/06 08:29:17;;;;;;;72.20;24.30;;;3.60;99.90;;;;;;5017519;28;20056;-77
2020/12/06 08:31:45;;;;;;;76.03;24.63;;;3.60;99.90;;;;;;5017154;28;20030;-76
2020/12/06 08:34:12;;;;;;;82.90;23.42;;;3.50;99.90;;;;;;5018944;28;20516;-77
2020/12/06 08:36:38;;;;;;;71.15;23.02;;;3.60;99.90;;;;;;5014449;28;20036;-77
2020/12/06 08:39:20;;;;;;;65.47;21.25;;;3.60;99.90;;;;;;5018908;28;20025;-77
2020/12/06 08:41:47;;;;;;;78.40;21.52;;;3.60;99.90;;;;;;5017449;28;20327;-77
2020/12/06 08:44:13;;;;;;;63.35;17.88;;;3.60;99.90;;;;;;5018262;28;20037;-78
2020/12/06 08:46:51;;;;;;;68.75;20.90;;;3.60;99.90;;;;;;5011962;28;20022;-77
2020/12/06 08:49:21;;;;;;;64.15;19.88;;;3.60;99.90;;;;;;5013267;28;20042;-79
2020/12/06 08:51:49;;;;;;;71.13;20.55;;;3.50;99.90;;;;;;5016436;28;20034;-77
2020/12/06 08:54:15;;;;;;;82.30;21.08;;;3.60;99.90;;;;;;5014515;28;20034;-78
2020/12/06 08:56:44;;;;;;;71.40;21.85;;;3.70;99.90;;;;;;5011771;28;20034;-79
2020/12/06 08:59:13;;;;;;;70.10;20.40;;;3.80;99.90;;;;;;5011431;28;20344;-78
2020/12/06 09:01:46;;;;;;;63.63;19.73;;;3.60;99.90;;;;;;5010251;28;20053;-78
2020/12/06 09:04:11;;;;;;;59.17;20.45;;;3.80;99.90;;;;;;5019433;28;20035;-78
2020/12/06 09:06:38;;;;;;;61.50;19.20;;;3.80;99.90;;;;;;5015978;28;20041;-78
2020/12/06 09:09:04;;;;;;;54.13;17.20;;;3.90;99.90;;;;;;5023498;28;20029;-78
2020/12/06 09:11:29;;;;;;;63.85;19.10;;;3.80;99.90;;;;;;5034231;28;20191;-77
2020/12/06 09:13:55;;;;;;;70.35;19.77;;;3.80;99.90;;;;;;5029965;28;20036;-76
2020/12/06 09:16:20;;;;;;;58.50;19.23;;;3.80;99.90;;;;;;5028237;28;20044;-77
2020/12/06 09:18:46;;;;;;;58.03;18.00;;;3.90;99.90;;;;;;5028147;28;20471;-76
2020/12/06 09:21:11;;;;;;;58.75;18.98;;;3.90;99.90;;;;;;5047565;28;20044;-78
2020/12/06 09:23:37;;;;;;;56.10;17.58;;;4.00;99.90;;;;;;5024609;28;20538;-79
2020/12/06 09:26:04;;;;;;;47.83;17.30;;;4.00;99.90;;;;;;5019024;28;20097;-78
2020/12/06 09:28:30;;;;;;;57.45;17.83;;;4.00;99.90;;;;;;5020028;28;20113;-75
2020/12/06 09:30:56;;;;;;;46.67;16.63;;;4.00;99.90;;;;;;5015684;28;20045;-77
2020/12/06 09:33:21;;;;;;;49.67;15.88;;;4.20;99.90;;;;;;5017663;28;20033;-76
2020/12/06 09:35:48;;;;;;;45.60;15.80;;;4.10;99.90;;;;;;5016536;28;20374;-77
2020/12/06 09:38:15;;;;;;;44.03;16.10;;;4.10;99.90;;;;;;5016926;28;20032;-77
2020/12/06 09:40:40;;;;;;;50.33;17.63;;;4.00;99.90;;;;;;5016625;28;20041;-77
2020/12/06 09:43:06;;;;;;;51.95;17.05;;;4.00;99.90;;;;;;5018141;28;20395;-76
2020/12/06 09:45:31;;;;;;;36.35;13.75;;;4.00;99.90;;;;;;5018385;28;20037;-77
2020/12/06 09:47:57;;;;;;;42.00;14.27;;;4.00;99.90;;;;;;5015047;28;20095;-78
2020/12/06 09:50:22;;;;;;;43.70;14.55;;;4.10;99.90;;;;;;5016734;28;20072;-77
2020/12/06 09:52:48;;;;;;;45.22;14.02;;;4.20;99.90;;;;;;5032195;28;20025;-78
2020/12/06 09:55:13;;;;;;;39.38;12.20;;;4.20;99.90;;;;;;5013073;28;20041;-78
2020/12/06 09:57:39;;;;;;;34.40;12.73;;;4.20;99.90;;;;;;5015360;28;20042;-77
2020/12/06 10:00:05;;;;;;;33.85;12.60;;;4.30;99.90;;;;;;5016680;28;20096;-77
2020/12/06 10:02:31;;;;;;;32.55;12.88;;;4.30;99.90;;;;;;5018138;28;20064;-79
2020/12/06 10:04:57;;;;;;;32.67;12.70;;;4.30;99.90;;;;;;5017538;28;20049;-76
2020/12/06 10:07:24;;;;;;;27.20;10.90;;;4.40;99.90;;;;;;5019021;28;20766;-77
2020/12/06 10:09:50;;;;;;;30.15;12.93;;;4.40;99.90;;;;;;5014157;28;20138;-77
2020/12/06 10:12:15;;;;;;;25.77;11.48;;;4.40;99.90;;;;;;5015402;28;20100;-77
2020/12/06 10:14:41;;;;;;;32.42;12.55;;;4.40;99.90;;;;;;5018241;28;20030;-79
2020/12/06 10:17:07;;;;;;;25.48;11.23;;;4.50;99.90;;;;;;5014855;28;20091;-77
2020/12/06 10:19:32;;;;;;;21.70;9.75;;;4.50;99.90;;;;;;5015848;28;20469;-77
2020/12/06 10:21:58;;;;;;;22.75;10.25;;;4.40;99.90;;;;;;5019427;28;20088;-77
2020/12/06 10:24:24;;;;;;;25.17;10.95;;;4.40;99.90;;;;;;5015900;28;20037;-77
2020/12/06 10:26:53;;;;;;;25.95;10.35;;;4.40;99.90;;;;;;5014928;28;20065;-77
2020/12/06 10:29:19;;;;;;;30.10;11.50;;;4.40;99.90;;;;;;5015080;28;20030;-76
2020/12/06 10:31:47;;;;;;;32.17;13.18;;;4.50;99.90;;;;;;5017212;28;20042;-77
2020/12/06 10:34:13;;;;;;;25.35;11.13;;;4.50;99.90;;;;;;5018490;28;20049;-79
2020/12/06 10:36:38;;;;;;;24.92;10.55;;;4.50;99.90;;;;;;5012964;28;20097;-78
2020/12/06 10:39:04;;;;;;;26.55;12.38;;;4.50;99.90;;;;;;5017994;28;20104;-78
2020/12/06 10:41:29;;;;;;;24.88;10.73;;;4.50;99.90;;;;;;5016698;28;20048;-78
2020/12/06 10:43:55;;;;;;;25.20;10.80;;;4.50;99.90;;;;;;5032952;28;20025;-80
2020/12/06 10:46:25;;;;;;;22.33;10.25;;;4.50;99.90;;;;;;5028973;28;20061;-80
2020/12/06 10:48:50;;;;;;;27.35;10.90;;;4.50;99.90;;;;;;5033812;28;20029;-78
2020/12/06 10:51:16;;;;;;;25.25;10.73;;;4.50;99.90;;;;;;5020633;28;20049;-78
2020/12/06 10:53:41;;;;;;;21.38;10.82;;;4.50;99.90;;;;;;5026028;28;20624;-78
2020/12/06 10:56:07;;;;;;;28.75;11.35;;;4.50;99.90;;;;;;5016766;28;20077;-78
2020/12/06 10:58:32;;;;;;;27.92;11.05;;;4.50;99.90;;;;;;5015527;28;20030;-77
2020/12/06 11:00:58;;;;;;;23.13;11.07;;;4.60;99.90;;;;;;5030595;28;20052;-78
2020/12/06 11:03:23;;;;;;;20.80;9.88;;;4.60;99.90;;;;;;5014720;28;20038;-78
2020/12/06 11:05:49;;;;;;;26.20;11.95;;;4.70;99.90;;;;;;5012078;28;20443;-79
2020/12/06 11:08:15;;;;;;;28.73;12.10;;;4.70;99.90;;;;;;5019404;28;20613;-77
2020/12/06 11:10:40;;;;;;;24.85;12.48;;;4.60;99.90;;;;;;5012688;28;20052;-78
2020/12/06 11:13:06;;;;;;;24.73;11.48;;;4.70;99.90;;;;;;5015878;28;20022;-77
2020/12/06 11:15:31;;;;;;;26.20;11.57;;;4.70;99.90;;;;;;5014173;28;20041;-77
2020/12/06 11:17:58;;;;;;;25.15;11.88;;;4.60;99.90;;;;;;5015296;28;20077;-77
2020/12/06 11:20:23;;;;;;;26.38;11.30;;;4.60;99.90;;;;;;5015701;28;20046;-78
2020/12/06 11:22:49;;;;;;;24.23;10.15;;;4.60;99.90;;;;;;5017422;28;20045;-78
2020/12/06 11:25:15;;;;;;;23.00;11.23;;;4.70;99.90;;;;;;5018473;28;20052;-77
2020/12/06 11:27:40;;;;;;;23.52;10.77;;;4.80;99.90;;;;;;5018146;28;20033;-78
2020/12/06 11:30:06;;;;;;;26.77;11.27;;;4.70;99.90;;;;;;5018415;28;20581;-79
2020/12/06 11:32:32;;;;;;;27.83;10.73;;;4.80;99.90;;;;;;5020761;28;20030;-78
2020/12/06 11:34:58;;;;;;;22.88;10.90;;;4.80;99.90;;;;;;5016839;28;20034;-77
2020/12/06 11:37:23;;;;;;;25.92;11.23;;;4.70;99.90;;;;;;5017950;28;20022;-79
2020/12/06 11:39:49;;;;;;;24.98;11.05;;;4.80;99.90;;;;;;5017370;28;20751;-77
2020/12/06 11:42:15;;;;;;;27.17;12.38;;;4.80;99.90;;;;;;5020089;28;20033;-77
2020/12/06 11:44:40;;;;;;;21.95;10.50;;;4.80;99.90;;;;;;5020022;28;20061;-78
2020/12/06 11:47:06;;;;;;;23.00;9.95;;;4.80;99.90;;;;;;5017743;28;20037;-78
2020/12/06 11:49:31;;;;;;;28.10;10.15;;;4.80;99.90;;;;;;5019705;28;20042;-77
2020/12/06 11:51:57;;;;;;;20.05;10.18;;;4.80;99.90;;;;;;5019616;28;20098;-76
2020/12/06 11:54:22;;;;;;;21.15;10.40;;;4.80;99.90;;;;;;5035003;28;20108;-77
2020/12/06 11:56:49;;;;;;;20.10;9.35;;;4.90;99.90;;;;;;5017406;28;20088;-78
2020/12/06 11:59:16;;;;;;;21.38;10.15;;;4.90;99.90;;;;;;5034138;28;20033;-78
2020/12/06 12:01:42;;;;;;;20.30;9.70;;;4.90;99.90;;;;;;5022880;28;20526;-78
2020/12/06 12:04:07;;;;;;;19.85;9.88;;;4.90;99.90;;;;;;5018114;28;20123;-76
2020/12/06 12:06:33;;;;;;;21.90;10.13;;;4.90;99.90;;;;;;5015780;28;20037;-78
2020/12/06 12:08:58;;;;;;;25.48;9.82;;;4.90;99.90;;;;;;5018437;28;20037;-77
2020/12/06 12:11:24;;;;;;;28.23;11.15;;;5.00;99.90;;;;;;5019531;28;20048;-76
2020/12/06 12:13:50;;;;;;;21.38;9.57;;;5.00;99.90;;;;;;5026246;28;20025;-78
2020/12/06 12:16:15;;;;;;;26.17;11.63;;;5.00;99.90;;;;;;5036186;28;20041;-77
2020/12/06 12:18:41;;;;;;;21.83;10.23;;;5.10;99.90;;;;;;5034535;28;20033;-79
2020/12/06 12:21:06;;;;;;;25.00;10.48;;;5.20;99.90;;;;;;5023006;28;20033;-79
2020/12/06 12:23:32;;;;;;;22.10;10.55;;;5.20;99.90;;;;;;5019588;28;20482;-83
2020/12/06 12:25:58;;;;;;;25.67;10.98;;;5.20;99.90;;;;;;5019921;28;20033;-82
2020/12/06 12:28:24;;;;;;;26.15;10.02;;;5.30;99.90;;;;;;5038941;28;20029;-82
2020/12/06 12:30:50;;;;;;;23.23;7.70;;;5.30;99.90;;;;;;5019622;28;20036;-82
2020/12/06 12:33:15;;;;;;;12.43;6.78;;;5.30;99.90;;;;;;5019923;28;20040;-83
2020/12/06 12:35:41;;;;;;;14.88;7.53;;;5.30;99.90;;;;;;5019941;28;20018;-83